createdAt,value
2024-02-29T00:01:24.214Z,0.82
2024-02-29T00:02:57.411Z,0.82
2024-02-29T00:04:32.969Z,0.82
2024-02-29T00:06:07.059Z,0.83
2024-02-29T00:07:41.349Z,0.84
2024-02-29T00:09:14.562Z,0.76
2024-02-29T00:10:48.778Z,0.79
2024-02-29T00:12:23.860Z,0.81
2024-02-29T00:13:57.999Z,0.82
2024-02-29T00:15:31.016Z,0.76
2024-02-29T00:17:07.128Z,0.77
2024-02-29T00:18:40.666Z,0.69
2024-02-29T00:20:14.687Z,0.69
2024-02-29T00:21:47.942Z,0.70
2024-02-29T00:23:22.230Z,0.70
2024-02-29T00:24:55.720Z,0.67
2024-02-29T00:26:29.796Z,0.64
2024-02-29T00:28:05.738Z,0.61
2024-02-29T00:29:39.587Z,0.64
2024-02-29T00:31:14.068Z,0.55
2024-02-29T00:32:48.694Z,0.52
2024-02-29T00:34:22.281Z,0.57
2024-02-29T00:36:08.644Z,0.46
2024-02-29T00:37:43.394Z,0.35
2024-02-29T00:39:18.113Z,0.33
2024-02-29T00:40:51.183Z,0.34
2024-02-29T00:42:25.318Z,0.26
2024-02-29T00:44:00.090Z,0.21
2024-02-29T00:45:34.269Z,0.16
2024-02-29T00:47:07.719Z,0.20
2024-02-29T00:48:41.755Z,0.20
2024-02-29T00:50:16.757Z,0.20
2024-02-29T00:51:50.868Z,0.23
2024-02-29T00:53:23.911Z,0.30
2024-02-29T00:54:58.088Z,0.29
2024-02-29T00:56:31.712Z,0.34
2024-02-29T00:58:06.126Z,0.25
2024-02-29T00:59:41.602Z,0.24
2024-02-29T01:01:15.765Z,0.16
2024-02-29T01:02:50.461Z,0.26
2024-02-29T01:04:23.508Z,0.30
2024-02-29T01:05:57.632Z,0.28
2024-02-29T01:07:31.844Z,0.27
2024-02-29T01:09:05.896Z,0.27
2024-02-29T01:10:40.304Z,0.25
2024-02-29T01:12:13.385Z,0.19
2024-02-29T01:13:47.459Z,0.26
2024-02-29T01:15:21.869Z,0.24
2024-02-29T01:16:57.611Z,0.18
2024-02-29T01:18:30.620Z,0.08
2024-02-29T01:20:07.250Z,-0.01
2024-02-29T01:21:42.333Z,-0.05
2024-02-29T01:23:16.369Z,-0.05
2024-02-29T01:24:49.436Z,0.04
2024-02-29T01:26:23.615Z,0.05
2024-02-29T01:27:57.125Z,-0.01
2024-02-29T01:29:31.265Z,-0.06
2024-02-29T01:31:06.915Z,-0.07
2024-02-29T01:32:41.033Z,-0.05
2024-02-29T01:34:14.218Z,0.00
2024-02-29T01:35:48.290Z,0.13
2024-02-29T01:37:21.325Z,0.25
2024-02-29T01:38:55.878Z,0.42
2024-02-29T01:40:29.416Z,0.44
2024-02-29T01:42:04.002Z,0.55
2024-02-29T01:43:37.070Z,0.64
2024-02-29T01:45:12.097Z,0.73
2024-02-29T01:46:46.563Z,0.67
2024-02-29T01:48:20.818Z,0.94
2024-02-29T01:49:58.198Z,0.88
2024-02-29T01:51:34.163Z,0.99
2024-02-29T01:53:08.323Z,1.03
2024-02-29T01:54:41.441Z,0.93
2024-02-29T01:56:15.880Z,1.19
2024-02-29T01:57:49.659Z,1.22
2024-02-29T01:59:24.441Z,1.33
2024-02-29T02:00:57.568Z,1.42
2024-02-29T02:02:33.052Z,1.51
2024-02-29T02:04:07.565Z,1.51
2024-02-29T02:05:41.688Z,1.58
2024-02-29T02:07:17.549Z,1.63
2024-02-29T02:08:50.664Z,1.65
2024-02-29T02:10:25.453Z,1.76
2024-02-29T02:11:58.414Z,1.75
2024-02-29T02:13:32.641Z,1.77
2024-02-29T02:15:06.983Z,1.73
2024-02-29T02:16:41.577Z,1.83
2024-02-29T02:18:17.133Z,1.88
2024-02-29T02:19:53.271Z,1.95
2024-02-29T02:21:27.751Z,1.99
2024-02-29T02:23:02.226Z,2.08
2024-02-29T02:24:36.037Z,2.06
2024-02-29T02:26:10.715Z,2.03
2024-02-29T02:27:45.287Z,2.09
2024-02-29T02:29:18.296Z,2.07
2024-02-29T02:30:52.671Z,2.05
2024-02-29T02:32:27.015Z,2.11
2024-02-29T02:34:00.854Z,1.98
2024-02-29T02:35:35.438Z,2.15
2024-02-29T02:37:10.014Z,2.12
2024-02-29T02:38:44.147Z,2.17
2024-02-29T02:40:18.525Z,2.29
2024-02-29T02:41:52.691Z,2.26
2024-02-29T02:43:25.644Z,2.30
2024-02-29T02:44:59.796Z,2.29
2024-02-29T02:46:33.363Z,2.42
2024-02-29T02:48:08.289Z,2.35
2024-02-29T02:49:42.892Z,2.27
2024-02-29T02:51:16.837Z,2.33
2024-02-29T02:52:51.869Z,2.38
2024-02-29T02:54:25.856Z,2.37
2024-02-29T02:55:58.852Z,2.35
2024-02-29T02:57:32.983Z,2.41
2024-02-29T02:59:07.654Z,2.35
2024-02-29T03:00:40.704Z,2.42
2024-02-29T03:02:14.928Z,2.34
2024-02-29T03:03:48.228Z,2.39
2024-02-29T03:05:23.792Z,2.42
2024-02-29T03:06:56.870Z,2.55
2024-02-29T03:08:32.681Z,2.54
2024-02-29T03:10:07.089Z,2.55
2024-02-29T03:11:41.853Z,2.63
2024-02-29T03:13:14.907Z,2.52
2024-02-29T03:14:49.058Z,2.57
2024-02-29T03:16:23.486Z,2.49
2024-02-29T03:17:58.084Z,2.70
2024-02-29T03:19:31.165Z,2.49
2024-02-29T03:21:06.312Z,2.72
2024-02-29T03:22:39.458Z,2.79
2024-02-29T03:24:15.247Z,2.85
2024-02-29T03:25:48.507Z,2.86
2024-02-29T03:27:22.832Z,2.89
2024-02-29T03:28:55.842Z,2.85
2024-02-29T03:30:30.630Z,2.86
2024-02-29T03:32:03.822Z,2.88
2024-02-29T03:33:38.035Z,2.84
2024-02-29T03:35:11.308Z,2.83
2024-02-29T03:36:45.802Z,2.80
2024-02-29T03:38:19.411Z,2.94
2024-02-29T03:39:55.973Z,2.94
2024-02-29T03:41:29.109Z,3.06
2024-02-29T03:43:03.720Z,3.03
2024-02-29T03:44:37.795Z,3.07
2024-02-29T03:46:11.118Z,2.99
2024-02-29T03:47:45.208Z,2.83
2024-02-29T03:49:18.810Z,2.94
2024-02-29T03:50:54.216Z,3.03
2024-02-29T03:52:27.346Z,2.95
2024-02-29T03:54:01.338Z,3.11
2024-02-29T03:55:36.326Z,3.08
2024-02-29T03:57:10.329Z,2.98
2024-02-29T03:58:43.100Z,2.99
2024-02-29T04:00:17.679Z,2.95
2024-02-29T04:01:51.920Z,2.99
2024-02-29T04:03:25.779Z,3.03
2024-02-29T04:04:59.313Z,2.97
2024-02-29T04:06:33.248Z,3.04
2024-02-29T04:08:12.789Z,3.01
2024-02-29T04:09:46.866Z,3.07
2024-02-29T04:11:21.102Z,3.10
2024-02-29T04:12:55.190Z,3.19
2024-02-29T04:14:28.563Z,3.25
2024-02-29T04:16:03.843Z,3.29
2024-02-29T04:17:37.805Z,3.26
2024-02-29T04:19:10.806Z,3.09
2024-02-29T04:20:45.530Z,3.19
2024-02-29T04:22:18.607Z,3.28
2024-02-29T04:23:52.511Z,3.30
2024-02-29T04:25:26.919Z,3.27
2024-02-29T04:27:01.181Z,3.39
2024-02-29T04:28:35.185Z,3.36
2024-02-29T04:30:10.116Z,3.54
2024-02-29T04:31:48.630Z,3.41
2024-02-29T04:33:21.524Z,3.33
2024-02-29T04:34:56.106Z,3.36
2024-02-29T04:36:30.595Z,3.38
2024-02-29T04:38:04.218Z,3.40
2024-02-29T04:39:38.478Z,3.47
2024-02-29T04:41:11.569Z,3.54
2024-02-29T04:42:46.807Z,3.55
2024-02-29T04:44:20.140Z,3.53
2024-02-29T04:45:56.149Z,3.64
2024-02-29T04:47:29.389Z,3.55
2024-02-29T04:49:03.461Z,3.46
2024-02-29T04:50:36.733Z,3.50
2024-02-29T04:52:10.753Z,3.58
2024-02-29T04:53:43.722Z,3.64
2024-02-29T04:55:17.680Z,3.58
2024-02-29T04:56:51.131Z,3.52
2024-02-29T04:58:26.422Z,3.65
2024-02-29T04:59:59.404Z,3.60
2024-02-29T05:01:33.813Z,3.56
2024-02-29T05:03:07.501Z,3.71
2024-02-29T05:04:41.350Z,3.76
2024-02-29T05:06:17.468Z,3.76
2024-02-29T05:07:51.353Z,3.87
2024-02-29T05:09:25.930Z,3.69
2024-02-29T05:10:58.902Z,3.65
2024-02-29T05:12:32.973Z,3.71
2024-02-29T05:14:07.298Z,3.75
2024-02-29T05:15:41.693Z,3.75
2024-02-29T05:17:14.544Z,3.79
2024-02-29T05:18:49.777Z,3.92
2024-02-29T05:20:22.656Z,4.02
2024-02-29T05:21:57.305Z,4.02
2024-02-29T05:23:30.223Z,4.05
2024-02-29T05:25:04.575Z,4.01
2024-02-29T05:26:37.575Z,3.70
2024-02-29T05:28:11.944Z,3.63
2024-02-29T05:29:46.128Z,3.84
2024-02-29T05:31:20.139Z,3.78
2024-02-29T05:32:53.202Z,3.90
2024-02-29T05:34:27.716Z,4.00
2024-02-29T05:36:00.979Z,3.87
2024-02-29T05:37:36.810Z,3.77
2024-02-29T05:39:12.313Z,3.94
2024-02-29T05:40:46.047Z,3.98
2024-02-29T05:42:20.077Z,4.04
2024-02-29T05:43:53.005Z,3.98
2024-02-29T05:45:28.268Z,3.95
2024-02-29T05:47:01.771Z,4.03
2024-02-29T05:48:38.704Z,3.93
2024-02-29T05:50:11.838Z,3.92
2024-02-29T05:51:45.945Z,3.86
2024-02-29T05:53:19.651Z,3.87
2024-02-29T05:54:54.240Z,3.89
2024-02-29T05:56:28.423Z,4.04
2024-02-29T05:58:01.706Z,3.96
2024-02-29T05:59:36.188Z,3.95
2024-02-29T06:01:11.458Z,4.03
2024-02-29T06:02:46.609Z,3.84
2024-02-29T06:04:20.698Z,4.02
2024-02-29T06:05:55.293Z,4.09
2024-02-29T06:07:28.934Z,4.01
2024-02-29T06:09:03.432Z,4.16
2024-02-29T06:10:36.496Z,4.22
2024-02-29T06:12:11.684Z,4.17
2024-02-29T06:13:44.824Z,4.26
2024-02-29T06:15:20.296Z,4.04
2024-02-29T06:16:54.803Z,4.05
2024-02-29T06:18:29.313Z,4.08
2024-02-29T06:20:02.676Z,4.12
2024-02-29T06:21:36.696Z,4.23
2024-02-29T06:23:09.816Z,4.16
2024-02-29T06:24:44.277Z,3.88
2024-02-29T06:26:17.426Z,4.01
2024-02-29T06:27:51.967Z,4.01
2024-02-29T06:29:25.350Z,3.98
2024-02-29T06:30:59.952Z,4.22
2024-02-29T06:32:34.912Z,4.18
2024-02-29T06:34:09.400Z,4.22
2024-02-29T06:35:43.483Z,4.23
2024-02-29T06:37:17.556Z,4.25
2024-02-29T06:38:52.303Z,4.43
2024-02-29T06:40:25.409Z,4.26
2024-02-29T06:41:59.627Z,4.34
2024-02-29T06:43:33.484Z,4.45
2024-02-29T06:45:08.331Z,4.43
2024-02-29T06:46:41.446Z,4.36
2024-02-29T06:48:18.230Z,4.47
2024-02-29T06:49:51.911Z,4.56
2024-02-29T06:51:25.995Z,4.62
2024-02-29T06:52:58.872Z,4.44
2024-02-29T06:54:33.471Z,4.46
2024-02-29T06:56:07.132Z,4.60
2024-02-29T06:57:41.204Z,4.50
2024-02-29T06:59:15.311Z,4.52
2024-02-29T07:00:49.309Z,4.71
2024-02-29T07:02:23.802Z,4.72
2024-02-29T07:03:59.092Z,4.89
2024-02-29T07:05:35.644Z,4.92
2024-02-29T07:07:11.123Z,4.91
2024-02-29T07:08:45.024Z,4.93
2024-02-29T07:10:21.087Z,5.03
2024-02-29T07:11:54.330Z,4.89
2024-02-29T07:13:28.696Z,5.12
2024-02-29T07:15:02.567Z,5.21
2024-02-29T07:16:37.362Z,5.23
2024-02-29T07:18:12.390Z,5.37
2024-02-29T07:19:47.945Z,5.28
2024-02-29T07:21:21.631Z,5.43
2024-02-29T07:22:55.851Z,5.28
2024-02-29T07:24:29.097Z,5.42
2024-02-29T07:26:04.916Z,5.59
2024-02-29T07:27:39.417Z,5.47
2024-02-29T07:29:14.038Z,5.57
2024-02-29T07:30:48.538Z,5.68
2024-02-29T07:32:22.106Z,5.77
2024-02-29T07:33:57.062Z,5.73
2024-02-29T07:35:32.457Z,5.69
2024-02-29T07:37:07.009Z,5.70
2024-02-29T07:38:40.153Z,5.92
2024-02-29T07:40:14.917Z,5.97
2024-02-29T07:41:48.680Z,6.10
2024-02-29T07:43:23.548Z,6.15
2024-02-29T07:44:56.983Z,6.23
2024-02-29T07:46:31.470Z,6.10
2024-02-29T07:48:05.057Z,6.16
2024-02-29T07:49:39.238Z,6.31
2024-02-29T07:51:14.572Z,6.46
2024-02-29T07:52:48.971Z,6.63
2024-02-29T07:54:23.123Z,6.64
2024-02-29T07:55:56.554Z,6.53
2024-02-29T07:57:30.640Z,6.70
2024-02-29T07:59:04.323Z,6.76
2024-02-29T08:00:39.201Z,7.11
2024-02-29T08:02:12.551Z,7.06
2024-02-29T08:03:46.579Z,7.03
2024-02-29T08:05:21.420Z,7.01
2024-02-29T08:06:55.908Z,7.00
2024-02-29T08:08:30.189Z,7.19
2024-02-29T08:10:03.723Z,7.40
2024-02-29T08:11:38.855Z,7.26
2024-02-29T08:13:12.272Z,7.16
2024-02-29T08:14:48.087Z,7.36
2024-02-29T08:16:21.689Z,7.54
2024-02-29T08:17:56.908Z,7.56
2024-02-29T08:19:30.195Z,7.65
2024-02-29T08:21:05.487Z,7.33
2024-02-29T08:22:40.611Z,7.23
2024-02-29T08:24:15.272Z,7.39
2024-02-29T08:25:48.314Z,7.53
2024-02-29T08:27:22.831Z,7.42
2024-02-29T08:28:57.054Z,7.52
2024-02-29T08:30:31.730Z,7.73
2024-02-29T08:32:04.922Z,7.71
2024-02-29T08:33:39.824Z,7.97
2024-02-29T08:35:12.999Z,7.68
2024-02-29T08:36:47.366Z,8.19
2024-02-29T08:38:21.925Z,8.14
2024-02-29T08:39:55.971Z,8.31
2024-02-29T08:41:29.275Z,8.30
2024-02-29T08:43:03.861Z,8.26
2024-02-29T08:44:37.519Z,8.26
2024-02-29T08:46:12.174Z,8.07
2024-02-29T08:47:45.160Z,8.13
2024-02-29T08:49:19.595Z,7.93
2024-02-29T08:50:52.627Z,7.78
2024-02-29T08:52:27.411Z,7.86
2024-02-29T08:54:01.691Z,7.80
2024-02-29T08:55:36.605Z,7.89
2024-02-29T08:57:09.813Z,7.91
2024-02-29T08:58:44.338Z,7.97
2024-02-29T09:00:19.111Z,8.13
2024-02-29T09:01:52.586Z,7.94
2024-02-29T09:03:26.833Z,7.68
2024-02-29T09:04:59.953Z,7.73
2024-02-29T09:06:41.146Z,7.80
2024-02-29T09:08:18.615Z,7.92
2024-02-29T09:09:54.569Z,7.77
2024-02-29T09:11:30.309Z,7.82
2024-02-29T09:13:15.820Z,7.82
2024-02-29T09:14:59.794Z,7.91
2024-02-29T09:16:32.901Z,8.19
2024-02-29T09:18:07.638Z,7.81
2024-02-29T09:19:40.608Z,7.92
2024-02-29T09:21:15.251Z,8.14
2024-02-29T09:22:50.354Z,8.62
2024-02-29T09:24:24.337Z,8.81
2024-02-29T09:25:58.869Z,8.77
2024-02-29T09:27:33.695Z,9.10
2024-02-29T09:29:07.371Z,9.21
2024-02-29T09:30:41.905Z,9.38
2024-02-29T09:32:15.141Z,9.60
2024-02-29T09:33:49.818Z,9.44
2024-02-29T09:35:22.976Z,9.09
2024-02-29T09:36:56.995Z,8.96
2024-02-29T09:38:30.339Z,8.97
2024-02-29T09:40:05.800Z,9.03
2024-02-29T09:41:59.005Z,8.92
2024-02-29T09:43:36.130Z,9.21
2024-02-29T09:45:13.010Z,9.06
2024-02-29T09:46:49.040Z,9.07
2024-02-29T09:48:22.319Z,8.64
2024-02-29T09:50:02.035Z,8.34
2024-02-29T09:51:41.347Z,8.10
2024-02-29T09:53:19.404Z,8.27
2024-02-29T09:54:53.360Z,8.52
2024-02-29T09:56:30.564Z,8.25
2024-02-29T09:58:06.697Z,8.24
2024-02-29T09:59:43.822Z,8.28
2024-02-29T10:01:17.547Z,7.82
2024-02-29T10:02:55.635Z,7.98
2024-02-29T10:04:29.774Z,8.06
2024-02-29T10:06:05.377Z,8.36
2024-02-29T10:07:47.120Z,8.40
2024-02-29T10:09:22.209Z,8.54
2024-02-29T10:10:56.133Z,8.36
2024-02-29T10:12:30.215Z,8.20
2024-02-29T10:14:04.721Z,8.04
2024-02-29T10:15:38.865Z,8.18
2024-02-29T10:17:12.484Z,8.29
2024-02-29T10:18:46.551Z,8.78
2024-02-29T10:20:21.790Z,9.00
2024-02-29T10:21:55.864Z,8.90
2024-02-29T10:23:30.178Z,9.15
2024-02-29T10:25:04.265Z,8.62
2024-02-29T10:26:37.338Z,8.88
2024-02-29T10:28:16.222Z,8.88
2024-02-29T10:29:51.514Z,8.84
2024-02-29T10:31:28.539Z,8.72
2024-02-29T10:33:01.640Z,8.92
2024-02-29T10:34:36.929Z,9.12
2024-02-29T10:36:12.135Z,9.12
2024-02-29T10:37:46.889Z,8.92
2024-02-29T10:39:20.836Z,9.08
2024-02-29T10:41:01.281Z,9.13
2024-02-29T10:42:36.371Z,8.98
2024-02-29T10:44:11.202Z,8.66
2024-02-29T10:45:47.681Z,8.84
2024-02-29T10:47:24.408Z,9.19
2024-02-29T10:49:03.421Z,9.09
2024-02-29T10:50:52.282Z,8.74
2024-02-29T10:52:27.719Z,8.46
2024-02-29T10:54:08.946Z,8.29
2024-02-29T10:55:50.880Z,8.23
2024-02-29T10:57:35.976Z,7.92
2024-02-29T10:59:10.642Z,8.02
2024-02-29T11:00:45.479Z,8.02
2024-02-29T11:02:20.187Z,8.18
2024-02-29T11:03:54.335Z,8.35
2024-02-29T11:05:28.410Z,8.38
2024-02-29T11:07:04.482Z,8.45
2024-02-29T11:08:37.836Z,8.56
2024-02-29T11:10:12.455Z,8.33
2024-02-29T11:11:48.573Z,8.34
2024-02-29T11:13:22.874Z,8.30
2024-02-29T11:14:59.420Z,8.39
2024-02-29T11:16:35.826Z,8.64
2024-02-29T11:18:10.832Z,8.41
2024-02-29T11:19:51.827Z,8.54
2024-02-29T11:21:30.394Z,8.67
2024-02-29T11:23:11.115Z,8.61
2024-02-29T11:24:45.732Z,8.72
2024-02-29T11:26:20.199Z,8.65
2024-02-29T11:27:53.825Z,8.65
2024-02-29T11:29:29.012Z,8.80
2024-02-29T11:31:18.649Z,9.34
2024-02-29T11:32:54.361Z,9.75
2024-02-29T11:34:28.673Z,9.73
2024-02-29T11:36:04.533Z,9.72
2024-02-29T11:37:42.146Z,9.27
2024-02-29T11:39:16.283Z,9.87
2024-02-29T11:40:50.798Z,10.25
2024-02-29T11:42:24.058Z,9.83
2024-02-29T11:43:59.180Z,10.27
2024-02-29T11:45:32.678Z,10.42
2024-02-29T11:47:07.669Z,10.45
2024-02-29T11:48:42.794Z,10.47
2024-02-29T11:50:18.972Z,10.95
2024-02-29T11:51:53.360Z,10.79
2024-02-29T11:53:29.619Z,10.96
2024-02-29T11:55:04.561Z,11.25
2024-02-29T11:56:40.415Z,11.28
2024-02-29T11:58:14.727Z,11.38
2024-02-29T11:59:51.382Z,10.96
2024-02-29T12:01:26.874Z,10.87
2024-02-29T12:03:00.652Z,11.07
2024-02-29T12:04:37.077Z,11.37
2024-02-29T12:06:10.047Z,11.81
2024-02-29T12:07:44.355Z,11.73
2024-02-29T12:09:18.720Z,12.04
2024-02-29T12:10:53.243Z,11.51
2024-02-29T12:12:26.429Z,11.63
2024-02-29T12:14:00.500Z,11.65
2024-02-29T12:15:35.013Z,11.65
2024-02-29T12:17:09.835Z,11.66
2024-02-29T12:18:43.191Z,11.48
2024-02-29T12:20:18.724Z,11.74
2024-02-29T12:21:53.703Z,11.92
2024-02-29T12:23:32.914Z,11.57
2024-02-29T12:25:15.039Z,11.35
2024-02-29T12:26:50.273Z,11.58
2024-02-29T12:28:23.907Z,11.20
2024-02-29T12:29:58.498Z,10.53
2024-02-29T12:31:31.614Z,10.40
2024-02-29T12:33:07.197Z,10.34
2024-02-29T12:34:44.467Z,10.84
2024-02-29T12:36:20.166Z,10.34
2024-02-29T12:37:53.276Z,10.60
2024-02-29T12:39:27.205Z,10.83
2024-02-29T12:41:02.812Z,11.08
2024-02-29T12:42:37.108Z,10.83
2024-02-29T12:44:11.877Z,10.48
2024-02-29T12:45:46.206Z,10.76
2024-02-29T12:47:19.959Z,10.70
2024-02-29T12:48:54.089Z,10.13
2024-02-29T12:50:27.022Z,10.33
2024-02-29T12:52:02.535Z,10.35
2024-02-29T12:53:35.997Z,10.49
2024-02-29T12:55:10.712Z,10.65
2024-02-29T12:56:44.447Z,10.91
2024-02-29T12:58:18.676Z,10.73
2024-02-29T12:59:51.990Z,10.42
2024-02-29T13:01:26.239Z,11.14
2024-02-29T13:02:59.509Z,11.07
2024-02-29T13:04:33.539Z,10.94
2024-02-29T13:06:07.258Z,11.07
2024-02-29T13:07:43.021Z,10.75
2024-02-29T13:09:20.648Z,10.80
2024-02-29T13:10:54.693Z,10.95
2024-02-29T13:12:29.181Z,10.96
2024-02-29T13:14:02.272Z,10.60
2024-02-29T13:15:36.226Z,10.55
2024-02-29T13:17:09.331Z,10.49
2024-02-29T13:18:43.947Z,10.36
2024-02-29T13:20:17.286Z,10.59
2024-02-29T13:21:52.190Z,10.87
2024-02-29T13:23:26.522Z,10.09
2024-02-29T13:25:01.193Z,10.12
2024-02-29T13:26:35.367Z,10.47
2024-02-29T13:28:09.512Z,9.99
2024-02-29T13:29:42.381Z,9.91
2024-02-29T13:31:16.846Z,9.76
2024-02-29T13:32:49.789Z,10.22
2024-02-29T13:34:24.044Z,10.17
2024-02-29T13:35:57.121Z,10.11
2024-02-29T13:37:31.765Z,10.01
2024-02-29T13:39:08.778Z,9.98
2024-02-29T13:40:42.731Z,10.02
2024-02-29T13:42:15.636Z,10.06
2024-02-29T13:43:49.967Z,10.24
2024-02-29T13:45:23.797Z,10.11
2024-02-29T13:46:57.714Z,9.67
2024-02-29T13:48:31.553Z,10.04
2024-02-29T13:50:05.773Z,10.02
2024-02-29T13:51:39.873Z,9.45
2024-02-29T13:53:12.870Z,9.48
2024-02-29T13:54:48.473Z,9.51
2024-02-29T13:56:22.274Z,9.50
2024-02-29T13:57:56.359Z,9.72
2024-02-29T13:59:29.303Z,9.91
2024-02-29T14:01:06.655Z,10.01
2024-02-29T14:02:41.050Z,10.04
2024-02-29T14:04:16.761Z,9.87
2024-02-29T14:05:50.726Z,10.13
2024-02-29T14:07:24.596Z,10.15
2024-02-29T14:08:58.358Z,10.05
2024-02-29T14:10:33.824Z,10.12
2024-02-29T14:12:07.661Z,10.11
2024-02-29T14:13:41.848Z,10.06
2024-02-29T14:15:15.829Z,10.17
2024-02-29T14:16:49.872Z,10.11
2024-02-29T14:18:22.748Z,10.05
2024-02-29T14:19:56.768Z,9.87
2024-02-29T14:21:30.252Z,9.73
2024-02-29T14:23:04.497Z,9.79
2024-02-29T14:24:37.474Z,9.81
2024-02-29T14:26:13.138Z,9.34
2024-02-29T14:27:47.004Z,9.55
2024-02-29T14:29:21.550Z,9.44
2024-02-29T14:30:54.838Z,9.20
2024-02-29T14:32:30.017Z,9.27
2024-02-29T14:34:04.592Z,9.44
2024-02-29T14:35:38.315Z,9.41
2024-02-29T14:37:12.563Z,9.28
2024-02-29T14:38:45.524Z,8.98
2024-02-29T14:40:20.293Z,9.02
2024-02-29T14:41:54.927Z,9.07
2024-02-29T14:43:29.633Z,9.12
2024-02-29T14:45:02.540Z,9.12
2024-02-29T14:46:37.181Z,9.14
2024-02-29T14:48:10.475Z,9.21
2024-02-29T14:49:44.975Z,9.32
2024-02-29T14:51:17.846Z,9.69
2024-02-29T14:52:52.972Z,9.59
2024-02-29T14:54:26.404Z,9.72
2024-02-29T14:56:00.372Z,9.57
2024-02-29T14:57:34.849Z,9.56
2024-02-29T14:59:09.811Z,9.42
2024-02-29T15:00:43.010Z,9.65
2024-02-29T15:02:17.267Z,9.70
2024-02-29T15:03:51.736Z,9.82
2024-02-29T15:05:26.177Z,9.77
2024-02-29T15:06:59.820Z,9.78
2024-02-29T15:08:34.558Z,9.39
2024-02-29T15:10:09.013Z,9.47
2024-02-29T15:11:43.251Z,9.27
2024-02-29T15:13:17.751Z,9.30
2024-02-29T15:14:51.866Z,9.14
2024-02-29T15:16:25.273Z,9.34
2024-02-29T15:17:59.826Z,9.25
2024-02-29T15:19:35.762Z,9.29
2024-02-29T15:21:09.944Z,9.21
2024-02-29T15:22:44.479Z,8.97
2024-02-29T15:24:21.837Z,8.93
2024-02-29T15:25:56.607Z,9.05
2024-02-29T15:27:39.006Z,9.10
2024-02-29T15:29:14.242Z,9.13
2024-02-29T15:30:49.220Z,9.08
2024-02-29T15:32:23.647Z,9.36
2024-02-29T15:33:58.747Z,9.33
2024-02-29T15:35:32.037Z,9.25
2024-02-29T15:37:06.315Z,9.59
2024-02-29T15:38:42.536Z,9.22
2024-02-29T15:40:16.667Z,8.91
2024-02-29T15:41:49.798Z,9.05
2024-02-29T15:43:24.485Z,8.80
2024-02-29T15:44:58.812Z,8.85
2024-02-29T15:46:33.110Z,8.82
2024-02-29T15:48:06.831Z,8.79
2024-02-29T15:49:41.371Z,8.52
2024-02-29T15:51:14.950Z,8.57
2024-02-29T15:52:48.965Z,8.71
2024-02-29T15:54:22.510Z,8.79
2024-02-29T15:55:57.115Z,8.81
2024-02-29T15:57:30.485Z,8.66
2024-02-29T15:59:05.299Z,8.66
2024-02-29T16:00:39.745Z,8.67
2024-02-29T16:02:14.547Z,8.75
2024-02-29T16:03:53.933Z,8.81
2024-02-29T16:05:28.082Z,8.79
2024-02-29T16:07:01.472Z,8.78
2024-02-29T16:08:35.641Z,8.70
2024-02-29T16:10:09.755Z,8.58
2024-02-29T16:11:44.868Z,8.56
2024-02-29T16:13:20.017Z,8.66
2024-02-29T16:14:53.947Z,8.46
2024-02-29T16:16:29.908Z,8.53
2024-02-29T16:18:04.254Z,8.47
2024-02-29T16:19:37.411Z,8.33
2024-02-29T16:21:12.101Z,8.55
2024-02-29T16:22:45.209Z,8.60
2024-02-29T16:24:19.498Z,8.69
2024-02-29T16:25:52.925Z,8.57
2024-02-29T16:27:27.192Z,8.54
2024-02-29T16:29:00.240Z,8.46
2024-02-29T16:30:34.484Z,8.32
2024-02-29T16:32:09.195Z,8.34
2024-02-29T16:33:43.536Z,8.32
2024-02-29T16:35:17.433Z,8.21
2024-02-29T16:36:51.615Z,8.32
2024-02-29T16:38:24.665Z,8.36
2024-02-29T16:39:59.023Z,8.31
2024-02-29T16:41:32.068Z,8.28
2024-02-29T16:43:06.172Z,8.36
2024-02-29T16:44:39.332Z,8.31
2024-02-29T16:46:14.260Z,8.15
2024-02-29T16:47:48.584Z,8.11
2024-02-29T16:49:22.579Z,8.23
2024-02-29T16:50:57.503Z,8.34
2024-02-29T16:52:31.958Z,8.31
2024-02-29T16:54:04.983Z,8.18
2024-02-29T16:55:39.247Z,8.14
2024-02-29T16:57:12.348Z,8.20
2024-02-29T16:58:46.957Z,8.21
2024-02-29T17:00:23.724Z,8.19
2024-02-29T17:01:57.856Z,8.06
2024-02-29T17:03:33.408Z,8.00
2024-02-29T17:05:07.155Z,8.07
2024-02-29T17:06:41.425Z,7.97
2024-02-29T17:08:15.409Z,7.94
2024-02-29T17:09:48.631Z,7.95
2024-02-29T17:11:23.114Z,8.01
2024-02-29T17:12:59.573Z,8.03
2024-02-29T17:14:32.742Z,8.07
2024-02-29T17:16:07.253Z,7.99
2024-02-29T17:17:40.669Z,7.88
2024-02-29T17:19:16.247Z,7.93
2024-02-29T17:20:49.179Z,7.94
2024-02-29T17:22:24.276Z,7.89
2024-02-29T17:23:57.789Z,7.98
2024-02-29T17:25:31.787Z,8.05
2024-02-29T17:27:05.061Z,7.87
2024-02-29T17:28:38.977Z,7.87
2024-02-29T17:30:13.570Z,7.97
2024-02-29T17:31:47.908Z,7.92
2024-02-29T17:33:20.924Z,7.86
2024-02-29T17:34:56.531Z,7.94
2024-02-29T17:36:29.893Z,7.96
2024-02-29T17:38:04.214Z,7.93
2024-02-29T17:39:37.307Z,7.87
2024-02-29T17:41:12.693Z,7.79
2024-02-29T17:42:46.107Z,7.77
2024-02-29T17:44:20.637Z,7.78
2024-02-29T17:45:53.796Z,7.71
2024-02-29T17:47:27.750Z,7.83
2024-02-29T17:49:01.569Z,7.76
2024-02-29T17:50:37.060Z,7.69
2024-02-29T17:52:10.087Z,7.71
2024-02-29T17:53:44.650Z,7.61
2024-02-29T17:55:19.027Z,7.63
2024-02-29T17:56:53.732Z,7.51
2024-02-29T17:58:26.692Z,7.41
2024-02-29T18:00:00.670Z,7.47
2024-02-29T18:01:34.884Z,7.39
2024-02-29T18:03:08.880Z,7.23
2024-02-29T18:04:41.968Z,7.37
2024-02-29T18:06:17.311Z,7.35
2024-02-29T18:07:55.721Z,7.33
2024-02-29T18:09:34.451Z,7.31
2024-02-29T18:11:07.481Z,7.27
2024-02-29T18:12:41.643Z,7.32
2024-02-29T18:14:16.909Z,7.25
2024-02-29T18:15:51.345Z,7.23
2024-02-29T18:17:24.413Z,7.20
2024-02-29T18:18:58.424Z,7.18
2024-02-29T18:20:31.945Z,7.10
2024-02-29T18:22:07.379Z,7.12
2024-02-29T18:23:40.349Z,6.93
2024-02-29T18:25:14.648Z,6.92
2024-02-29T18:26:49.236Z,6.77
2024-02-29T18:28:23.459Z,6.72
2024-02-29T18:29:56.629Z,6.67
2024-02-29T18:31:30.605Z,6.64
2024-02-29T18:33:04.558Z,6.51
2024-02-29T18:34:38.793Z,6.42
2024-02-29T18:36:11.869Z,6.46
2024-02-29T18:37:47.590Z,6.41
2024-02-29T18:39:21.019Z,6.38
2024-02-29T18:40:55.047Z,6.33
2024-02-29T18:42:29.631Z,6.29
2024-02-29T18:44:03.927Z,6.21
2024-02-29T18:45:38.281Z,6.20
2024-02-29T18:47:11.468Z,6.14
2024-02-29T18:48:45.623Z,6.10
2024-02-29T18:50:19.017Z,6.10
2024-02-29T18:51:53.608Z,6.01
2024-02-29T18:53:27.971Z,6.02
2024-02-29T18:55:02.639Z,5.92
2024-02-29T18:56:35.676Z,5.86
2024-02-29T18:58:10.104Z,5.85
2024-02-29T18:59:43.174Z,5.83
2024-02-29T19:01:18.117Z,5.79
2024-02-29T19:02:51.630Z,5.70
2024-02-29T19:04:26.252Z,5.65
2024-02-29T19:06:00.099Z,5.61
2024-02-29T19:07:34.524Z,5.61
2024-02-29T19:09:10.153Z,5.61
2024-02-29T19:10:43.733Z,5.62
2024-02-29T19:12:17.687Z,5.55
2024-02-29T19:13:51.749Z,5.50
2024-02-29T19:15:25.761Z,5.46
2024-02-29T19:16:59.246Z,5.49
2024-02-29T19:18:33.157Z,5.46
2024-02-29T19:20:11.479Z,5.41
2024-02-29T19:21:45.973Z,5.35
2024-02-29T19:23:19.216Z,5.28
2024-02-29T19:24:54.505Z,5.29
2024-02-29T19:26:28.072Z,5.25
2024-02-29T19:28:01.968Z,5.13
2024-02-29T19:29:36.943Z,5.09
2024-02-29T19:31:11.548Z,5.04
2024-02-29T19:32:44.564Z,5.03
2024-02-29T19:34:18.581Z,5.05
2024-02-29T19:35:52.685Z,5.03
2024-02-29T19:37:27.742Z,4.99
2024-02-29T19:39:00.767Z,4.93
2024-02-29T19:40:36.187Z,4.92
2024-02-29T19:42:10.088Z,4.95
2024-02-29T19:43:44.274Z,4.87
2024-02-29T19:45:17.766Z,4.82
2024-02-29T19:46:53.049Z,4.79
2024-02-29T19:48:26.402Z,4.84
2024-02-29T19:50:01.271Z,4.80
2024-02-29T19:51:40.228Z,4.81
2024-02-29T19:53:14.227Z,4.79
2024-02-29T19:54:48.755Z,4.73
2024-02-29T19:56:24.420Z,4.80
2024-02-29T19:57:57.522Z,4.77
2024-02-29T19:59:31.406Z,4.72
2024-02-29T20:01:05.134Z,4.74
2024-02-29T20:02:39.084Z,4.72
2024-02-29T20:04:13.228Z,4.70
2024-02-29T20:05:46.208Z,4.77
2024-02-29T20:07:21.300Z,4.75
2024-02-29T20:08:54.383Z,4.78
2024-02-29T20:10:28.564Z,4.77
2024-02-29T20:12:03.094Z,4.78
2024-02-29T20:13:37.516Z,4.79
2024-02-29T20:15:12.453Z,4.76
2024-02-29T20:16:47.590Z,4.72
2024-02-29T20:18:24.396Z,4.76
2024-02-29T20:20:01.032Z,4.70
2024-02-29T20:21:33.881Z,4.71
2024-02-29T20:23:07.882Z,4.68
2024-02-29T20:24:40.985Z,4.69
2024-02-29T20:26:17.580Z,4.68
2024-02-29T20:27:53.694Z,4.69
2024-02-29T20:29:26.881Z,4.70
2024-02-29T20:31:02.382Z,4.67
2024-02-29T20:32:37.069Z,4.61
2024-02-29T20:34:11.140Z,4.53
2024-02-29T20:35:44.356Z,4.59
2024-02-29T20:37:18.358Z,4.50
2024-02-29T20:38:52.861Z,4.45
2024-02-29T20:40:27.652Z,4.47
2024-02-29T20:42:00.676Z,4.38
2024-02-29T20:43:36.081Z,4.44
2024-02-29T20:45:12.321Z,4.39
2024-02-29T20:46:47.461Z,4.40
2024-02-29T20:48:20.385Z,4.31
2024-02-29T20:49:54.359Z,4.22
2024-02-29T20:51:28.878Z,4.22
2024-02-29T20:53:01.757Z,4.13
2024-02-29T20:54:35.978Z,4.14